createdAt,value
2023-02-18T00:04:03.801Z,99939.59
2023-02-18T00:08:20.852Z,99924.41
2023-02-18T00:12:37.106Z,99917.81
2023-02-18T00:16:53.428Z,99914.31
2023-02-18T00:21:09.914Z,99897.66
2023-02-18T00:25:26.332Z,99893.56
2023-02-18T00:29:42.587Z,99899.81
2023-02-18T00:33:59.515Z,99888.91
2023-02-18T00:38:15.836Z,99893.28
2023-02-18T00:42:32.166Z,99887.03
2023-02-18T00:46:50.029Z,99893.53
2023-02-18T00:51:07.529Z,99887.03
2023-02-18T00:55:23.763Z,99878.81
2023-02-18T00:59:39.998Z,99876.38
2023-02-18T01:03:56.388Z,99870.91
2023-02-18T01:08:13.199Z,99908.56
2023-02-18T01:12:29.497Z,99867.12
2023-02-18T01:16:45.834Z,99847.19
2023-02-18T01:21:02.161Z,99858.66
2023-02-18T01:25:18.571Z,99855.87
2023-02-18T01:29:34.849Z,99855.38
2023-02-18T01:33:54.380Z,99836.53
2023-02-18T01:38:10.905Z,99846.88
2023-02-18T01:42:29.917Z,99859.97
2023-02-18T01:46:46.616Z,99860.50
2023-02-18T01:51:13.831Z,99836.47
2023-02-18T01:55:30.200Z,99820.03
2023-02-18T01:59:58.507Z,99835.69
2023-02-18T02:04:14.936Z,99823.97
2023-02-18T02:08:31.169Z,99824.50
2023-02-18T02:13:13.958Z,99829.69
2023-02-18T02:17:45.459Z,99821.19
2023-02-18T02:22:18.517Z,99822.47
2023-02-18T02:26:55.820Z,99811.81
2023-02-18T02:31:49.284Z,99811.37
2023-02-18T02:36:37.499Z,99809.09
2023-02-18T02:41:08.090Z,99819.72
2023-02-18T02:45:41.366Z,99788.28
2023-02-18T02:50:19.348Z,99818.84
2023-02-18T02:54:35.650Z,99788.66
2023-02-18T02:59:03.451Z,99812.63
2023-02-18T03:03:29.715Z,99806.53
2023-02-18T03:08:16.626Z,99816.72
2023-02-18T03:12:44.796Z,99816.53
2023-02-18T03:17:06.194Z,99802.56
2023-02-18T03:22:00.941Z,99793.56
2023-02-18T03:26:18.880Z,99799.50
2023-02-18T03:31:02.914Z,99802.22
2023-02-18T03:35:19.557Z,99804.00
2023-02-18T03:39:41.056Z,99820.88
2023-02-18T03:44:02.283Z,99831.50
2023-02-18T03:48:18.612Z,99819.59
2023-02-18T03:52:36.974Z,99828.94
2023-02-18T03:56:53.181Z,99821.19
2023-02-18T04:01:09.525Z,99839.16
2023-02-18T04:05:25.946Z,99843.66
2023-02-18T04:09:42.210Z,99832.44
2023-02-18T04:13:58.525Z,99877.72
2023-02-18T04:18:14.848Z,99858.25
2023-02-18T04:22:31.175Z,99846.91
2023-02-18T04:26:47.956Z,99866.28
2023-02-18T04:31:04.683Z,99870.59
2023-02-18T04:35:21.194Z,99859.75
2023-02-18T04:39:37.460Z,99884.88
2023-02-18T04:43:53.821Z,99882.75
2023-02-18T04:48:10.130Z,99900.03
2023-02-18T04:52:26.568Z,99935.78
2023-02-18T04:56:42.723Z,99926.94
2023-02-18T05:01:03.031Z,99960.66
2023-02-18T05:05:19.326Z,99950.56
2023-02-18T05:09:35.585Z,99953.31
2023-02-18T05:13:51.920Z,99952.50
2023-02-18T05:18:08.281Z,99948.34
2023-02-18T05:22:24.577Z,99946.72
2023-02-18T05:26:40.977Z,99955.97
2023-02-18T05:30:57.391Z,99963.13
2023-02-18T05:35:14.314Z,99969.06
2023-02-18T05:39:30.494Z,99982.22
2023-02-18T05:44:05.312Z,99985.28
2023-02-18T05:48:21.567Z,100008.72
2023-02-18T05:52:37.752Z,100016.25
2023-02-18T05:56:54.587Z,100018.22
2023-02-18T06:01:10.839Z,100034.72
2023-02-18T06:05:27.005Z,100044.50
2023-02-18T06:09:43.343Z,100050.22
2023-02-18T06:13:59.755Z,100054.25
2023-02-18T06:18:15.995Z,100040.22
2023-02-18T06:22:32.260Z,100034.59
2023-02-18T06:26:48.458Z,100021.72
2023-02-18T06:31:05.040Z,100012.84
2023-02-18T06:35:21.365Z,100025.91
2023-02-18T06:39:38.940Z,100012.81
2023-02-18T06:43:55.159Z,100018.22
2023-02-18T06:48:11.587Z,100018.81
2023-02-18T06:52:28.062Z,100022.12
2023-02-18T06:56:44.420Z,100028.13
2023-02-18T07:01:00.861Z,100034.69
2023-02-18T07:05:17.459Z,100046.16
2023-02-18T07:09:33.768Z,100038.81
2023-02-18T07:13:50.023Z,100052.19
2023-02-18T07:18:06.245Z,100059.25
2023-02-18T07:22:22.949Z,100056.56
2023-02-18T07:26:39.124Z,100068.50
2023-02-18T07:30:55.333Z,100055.94
2023-02-18T07:35:14.668Z,100057.13
2023-02-18T07:39:30.832Z,100063.59
2023-02-18T07:43:47.227Z,100065.84
2023-02-18T07:48:03.588Z,100067.47
2023-02-18T07:52:19.915Z,100069.66
2023-02-18T07:56:36.184Z,100071.84
2023-02-18T08:00:54.456Z,100086.59
2023-02-18T08:05:11.325Z,100078.09
2023-02-18T08:09:27.566Z,100078.69
2023-02-18T08:13:45.061Z,100083.31
2023-02-18T08:18:03.215Z,100077.31
2023-02-18T08:22:19.433Z,100080.84
2023-02-18T08:26:35.737Z,100079.75
2023-02-18T08:30:54.907Z,100091.50
2023-02-18T08:35:12.134Z,100082.00
2023-02-18T08:39:28.308Z,100069.38
2023-02-18T08:43:44.656Z,100069.94
2023-02-18T08:48:18.863Z,100064.78
2023-02-18T08:52:38.822Z,100072.38
2023-02-18T08:56:58.385Z,100066.88
2023-02-18T09:01:14.839Z,100056.47
2023-02-18T09:05:31.278Z,100059.81
2023-02-18T09:09:47.499Z,100044.59
2023-02-18T09:14:03.810Z,100046.09
2023-02-18T09:18:20.083Z,100052.16
2023-02-18T09:22:36.287Z,100048.69
2023-02-18T09:26:52.739Z,100044.97
2023-02-18T09:31:18.306Z,100047.31
2023-02-18T09:35:38.702Z,100039.75
2023-02-18T09:39:55.141Z,100054.22
2023-02-18T09:44:45.443Z,100056.75
2023-02-18T09:49:04.205Z,100065.53
2023-02-18T09:53:21.843Z,100052.41
2023-02-18T09:57:47.375Z,100066.84
2023-02-18T10:02:04.009Z,100080.84
2023-02-18T10:06:24.452Z,100071.00
2023-02-18T10:10:46.461Z,100061.97
2023-02-18T10:15:02.804Z,100065.28
2023-02-18T10:19:41.224Z,100062.78
2023-02-18T10:24:17.506Z,100056.53
2023-02-18T10:28:35.439Z,100054.81
2023-02-18T10:32:59.235Z,100049.25
2023-02-18T10:37:15.640Z,100058.75
2023-02-18T10:41:47.637Z,100023.06
2023-02-18T10:46:32.103Z,100021.09
2023-02-18T10:50:48.770Z,100009.44
2023-02-18T10:55:09.737Z,100033.47
2023-02-18T10:59:30.381Z,100010.50
2023-02-18T11:03:50.287Z,100016.78
2023-02-18T11:08:10.353Z,100027.16
2023-02-18T11:12:47.220Z,100014.00
2023-02-18T11:17:26.136Z,100012.91
2023-02-18T11:21:44.648Z,100003.47
2023-02-18T11:26:04.588Z,100004.25
2023-02-18T11:30:26.054Z,99975.63
2023-02-18T11:34:43.922Z,99982.91
2023-02-18T11:39:06.802Z,99982.66
2023-02-18T11:43:23.067Z,99971.66
2023-02-18T11:47:39.279Z,99958.91
2023-02-18T11:51:56.175Z,99957.31
2023-02-18T11:56:20.663Z,99949.53
2023-02-18T12:00:41.817Z,99941.28
2023-02-18T12:05:23.594Z,99947.59
2023-02-18T12:09:46.525Z,99934.59
2023-02-18T12:14:02.781Z,99919.22
2023-02-18T12:18:57.729Z,99920.75
2023-02-18T12:23:28.465Z,99913.19
2023-02-18T12:28:04.230Z,99904.53
2023-02-18T12:32:28.571Z,99903.34
2023-02-18T12:37:05.981Z,99894.81
2023-02-18T12:41:51.068Z,99870.53
2023-02-18T12:46:34.190Z,99864.00
2023-02-18T12:51:11.834Z,99865.50
2023-02-18T12:56:26.917Z,99865.28
2023-02-18T13:01:10.608Z,99846.69
2023-02-18T13:05:32.871Z,99834.34
2023-02-18T13:10:12.305Z,99835.00
2023-02-18T13:14:59.433Z,99823.78
2023-02-18T13:19:26.762Z,99816.44
2023-02-18T13:24:01.285Z,99821.81
2023-02-18T13:28:50.058Z,99827.69
2023-02-18T13:33:22.975Z,99802.19
2023-02-18T13:37:56.425Z,99812.94
2023-02-18T13:42:18.877Z,99787.56
2023-02-18T13:46:53.233Z,99785.94
2023-02-18T13:51:10.095Z,99794.38
2023-02-18T13:55:46.157Z,99776.25
2023-02-18T14:00:15.506Z,99761.56
2023-02-18T14:04:41.953Z,99758.28
2023-02-18T14:09:24.432Z,99746.53
2023-02-18T14:13:41.434Z,99739.91
2023-02-18T14:18:15.702Z,99740.13
2023-02-18T14:22:48.028Z,99731.94
2023-02-18T14:27:15.178Z,99740.19
2023-02-18T14:31:35.004Z,99734.50
2023-02-18T14:36:09.812Z,99718.91
2023-02-18T14:40:37.125Z,99715.44
2023-02-18T14:45:09.775Z,99710.91
2023-02-18T14:49:53.900Z,99703.50
2023-02-18T14:54:16.300Z,99709.75
2023-02-18T14:58:39.502Z,99702.91
2023-02-18T15:02:56.262Z,99694.91
2023-02-18T15:07:13.829Z,99686.69
2023-02-18T15:12:07.627Z,99681.19
2023-02-18T15:16:34.369Z,99665.81
2023-02-18T15:20:50.824Z,99658.63
2023-02-18T15:25:07.833Z,99652.34
2023-02-18T15:29:27.166Z,99647.84
2023-02-18T15:33:48.388Z,99645.00
2023-02-18T15:38:04.967Z,99633.91
2023-02-18T15:42:41.492Z,99621.09
2023-02-18T15:47:04.131Z,99609.78
2023-02-18T15:51:25.376Z,99619.87
2023-02-18T15:55:43.467Z,99620.00
2023-02-18T16:00:05.870Z,99617.75
2023-02-18T16:04:29.076Z,99603.59
2023-02-18T16:09:02.724Z,99608.31
2023-02-18T16:13:19.784Z,99592.84
2023-02-18T16:17:36.088Z,99581.78
2023-02-18T16:21:52.384Z,99580.25
2023-02-18T16:26:28.477Z,99576.84
2023-02-18T16:30:48.123Z,99589.91
2023-02-18T16:35:04.620Z,99577.72
2023-02-18T16:39:24.750Z,99585.22
2023-02-18T16:43:44.899Z,99598.94
2023-02-18T16:48:25.050Z,99605.81
2023-02-18T16:52:42.054Z,99608.50
2023-02-18T16:56:59.422Z,99608.47
2023-02-18T17:01:44.639Z,99598.22
2023-02-18T17:06:01.635Z,99590.84
2023-02-18T17:10:19.099Z,99592.06
2023-02-18T17:14:36.120Z,99593.03
2023-02-18T17:18:52.614Z,99598.59
2023-02-18T17:23:11.694Z,99592.91
2023-02-18T17:27:28.344Z,99599.81
2023-02-18T17:31:47.835Z,99605.34
2023-02-18T17:36:05.802Z,99609.66
2023-02-18T17:40:25.872Z,99618.56
2023-02-18T17:44:42.933Z,99611.38
2023-02-18T17:49:03.495Z,99617.47
2023-02-18T17:53:20.831Z,99619.91
2023-02-18T17:57:37.288Z,99624.91
2023-02-18T18:01:58.475Z,99619.63
2023-02-18T18:06:19.351Z,99623.12
2023-02-18T18:10:59.094Z,99628.91
2023-02-18T18:15:30.487Z,99640.44
2023-02-18T18:19:46.685Z,99642.37
2023-02-18T18:24:03.475Z,99644.09
2023-02-18T18:28:20.095Z,99637.75
2023-02-18T18:32:36.288Z,99632.53
2023-02-18T18:36:52.564Z,99637.59
2023-02-18T18:41:15.637Z,99646.78
2023-02-18T18:45:37.529Z,99637.28
2023-02-18T18:49:54.005Z,99645.88
2023-02-18T18:54:12.226Z,99653.97
2023-02-18T18:58:29.708Z,99668.09
2023-02-18T19:02:46.187Z,99652.78
2023-02-18T19:07:02.341Z,99645.69
2023-02-18T19:11:18.729Z,99652.81
2023-02-18T19:15:37.770Z,99659.91
2023-02-18T19:19:55.135Z,99680.91
2023-02-18T19:24:11.370Z,99681.28
2023-02-18T19:28:28.965Z,99664.03
2023-02-18T19:32:47.508Z,99653.19
2023-02-18T19:37:03.848Z,99667.97
2023-02-18T19:41:20.154Z,99661.28
2023-02-18T19:45:42.692Z,99658.63
2023-02-18T19:50:00.782Z,99650.87
2023-02-18T19:54:17.010Z,99654.38
2023-02-18T19:58:34.026Z,99643.75
2023-02-18T20:02:55.884Z,99660.56
2023-02-18T20:07:16.412Z,99656.34
2023-02-18T20:11:39.111Z,99671.13
2023-02-18T20:15:58.261Z,99667.63
2023-02-18T20:20:14.537Z,99689.81
2023-02-18T20:24:32.326Z,99692.22
2023-02-18T20:28:49.053Z,99679.31
2023-02-18T20:33:05.948Z,99693.81
2023-02-18T20:37:22.388Z,99679.28
2023-02-18T20:41:39.155Z,99694.59
2023-02-18T20:45:55.491Z,99691.75
2023-02-18T20:50:11.716Z,99713.16
2023-02-18T20:54:31.932Z,99712.66
2023-02-18T20:58:50.431Z,99721.22
2023-02-18T21:03:06.871Z,99712.81
2023-02-18T21:07:23.274Z,99729.00
2023-02-18T21:11:40.051Z,99733.84
2023-02-18T21:15:56.309Z,99738.41
2023-02-18T21:20:12.503Z,99749.78
2023-02-18T21:24:28.815Z,99752.84
2023-02-18T21:28:48.644Z,99757.37
2023-02-18T21:33:05.484Z,99766.66
2023-02-18T21:37:21.833Z,99764.97
2023-02-18T21:41:40.953Z,99753.47
2023-02-18T21:46:09.660Z,99756.34
2023-02-18T21:50:27.027Z,99768.22
2023-02-18T21:54:44.830Z,99776.19
2023-02-18T21:59:01.148Z,99780.06
2023-02-18T22:03:17.408Z,99773.69
2023-02-18T22:07:33.931Z,99775.34
2023-02-18T22:11:50.180Z,99766.69
2023-02-18T22:16:07.193Z,99769.97
2023-02-18T22:20:23.620Z,99772.75
2023-02-18T22:24:39.833Z,99781.44
2023-02-18T22:28:58.209Z,99765.03
2023-02-18T22:33:14.440Z,99772.94
2023-02-18T22:37:34.087Z,99774.59
2023-02-18T22:41:50.310Z,99778.19
2023-02-18T22:46:12.153Z,99785.28
2023-02-18T22:50:28.486Z,99785.56
2023-02-18T22:54:44.871Z,99786.91
2023-02-18T22:59:01.212Z,99781.72
2023-02-18T23:03:18.293Z,99782.84
2023-02-18T23:07:34.746Z,99781.44
2023-02-18T23:11:55.413Z,99794.00
2023-02-18T23:16:16.191Z,99800.53
2023-02-18T23:20:51.072Z,99795.91
2023-02-18T23:25:08.229Z,99803.81
2023-02-18T23:29:24.492Z,99793.41
2023-02-18T23:33:40.833Z,99805.44
2023-02-18T23:38:06.125Z,99793.47
2023-02-18T23:42:22.860Z,99784.19
2023-02-18T23:46:39.712Z,99780.66
2023-02-18T23:51:03.773Z,99779.25
2023-02-18T23:55:20.010Z,99777.09
2023-02-18T23:59:36.324Z,99768.34
